createdAt,value
2018-12-02T00:02:06.435Z,7.20
2018-12-02T00:04:39.254Z,7.20
2018-12-02T00:07:08.738Z,7.20
2018-12-02T00:09:38.748Z,7.20
2018-12-02T00:12:08.245Z,7.20
2018-12-02T00:14:37.572Z,7.20
2018-12-02T00:17:08.049Z,7.20
2018-12-02T00:19:38.632Z,7.20
2018-12-02T00:22:09.552Z,7.20
2018-12-02T00:24:38.952Z,7.20
2018-12-02T00:27:17.912Z,7.20
2018-12-02T00:29:52.758Z,7.20
2018-12-02T00:32:22.033Z,7.20
2018-12-02T00:34:52.328Z,7.20
2018-12-02T00:37:22.362Z,7.20
2018-12-02T00:39:53.170Z,7.20
2018-12-02T00:42:26.913Z,7.20
2018-12-02T00:44:59.670Z,7.20
2018-12-02T00:47:32.260Z,7.20
2018-12-02T00:50:02.258Z,7.20
2018-12-02T00:52:31.735Z,7.20
2018-12-02T00:55:01.924Z,7.20
2018-12-02T00:57:31.206Z,7.30
2018-12-02T01:00:04.136Z,7.30
2018-12-02T01:02:34.748Z,7.30
2018-12-02T01:05:04.075Z,7.30
2018-12-02T01:07:35.247Z,7.30
2018-12-02T01:10:04.825Z,7.30
2018-12-02T01:12:34.370Z,7.30
2018-12-02T01:15:08.866Z,7.30
2018-12-02T01:17:38.122Z,7.40
2018-12-02T01:20:10.762Z,7.40
2018-12-02T01:22:40.209Z,7.40
2018-12-02T01:25:11.420Z,7.40
2018-12-02T01:27:52.963Z,7.40
2018-12-02T01:30:25.592Z,7.40
2018-12-02T01:32:55.907Z,7.40
2018-12-02T01:35:25.955Z,7.40
2018-12-02T01:38:00.794Z,7.40
2018-12-02T01:40:30.252Z,7.40
2018-12-02T01:42:59.334Z,7.40
2018-12-02T01:45:31.920Z,7.40
2018-12-02T01:48:05.044Z,7.40
2018-12-02T01:50:34.424Z,7.40
2018-12-02T01:53:03.766Z,7.50
2018-12-02T01:55:33.151Z,7.50
2018-12-02T01:58:03.706Z,7.50
2018-12-02T02:00:32.844Z,7.50
2018-12-02T02:03:03.865Z,7.50
2018-12-02T02:05:33.049Z,7.50
2018-12-02T02:08:02.656Z,7.50
2018-12-02T02:10:33.901Z,7.50
2018-12-02T02:13:04.002Z,7.50
2018-12-02T02:15:33.240Z,7.50
2018-12-02T02:18:02.491Z,7.50
2018-12-02T02:20:31.715Z,7.40
2018-12-02T02:23:01.307Z,7.40
2018-12-02T02:25:30.755Z,7.40
2018-12-02T02:28:00.342Z,7.40
2018-12-02T02:30:30.398Z,7.30
2018-12-02T02:32:59.820Z,7.30
2018-12-02T02:35:29.071Z,7.30
2018-12-02T02:37:59.454Z,7.30
2018-12-02T02:40:33.295Z,7.30
2018-12-02T02:43:04.916Z,7.30
2018-12-02T02:45:39.397Z,7.30
2018-12-02T02:48:08.911Z,7.30
2018-12-02T02:50:38.145Z,7.30
2018-12-02T02:53:07.410Z,7.30
2018-12-02T02:55:40.114Z,7.30
2018-12-02T02:58:09.764Z,7.30
2018-12-02T03:00:39.600Z,7.40
2018-12-02T03:03:10.123Z,7.40
2018-12-02T03:05:39.635Z,7.30
2018-12-02T03:08:08.897Z,7.40
2018-12-02T03:10:38.272Z,7.40
2018-12-02T03:13:12.286Z,7.40
2018-12-02T03:15:42.759Z,7.40
2018-12-02T03:18:15.161Z,7.40
2018-12-02T03:20:46.301Z,7.40
2018-12-02T03:23:15.599Z,7.40
2018-12-02T03:25:44.846Z,7.40
2018-12-02T03:28:16.121Z,7.50
2018-12-02T03:30:45.425Z,7.50
2018-12-02T03:33:15.719Z,7.50
2018-12-02T03:35:52.439Z,7.60
2018-12-02T03:38:21.657Z,7.60
2018-12-02T03:40:51.453Z,7.60
2018-12-02T03:43:36.561Z,7.60
2018-12-02T03:46:07.420Z,7.60
2018-12-02T03:48:39.080Z,7.60
2018-12-02T03:51:09.492Z,7.60
2018-12-02T03:53:38.616Z,7.70
2018-12-02T03:56:09.473Z,7.70
2018-12-02T03:58:39.017Z,7.70
2018-12-02T04:01:08.375Z,7.70
2018-12-02T04:03:37.816Z,7.70
2018-12-02T04:06:08.068Z,7.80
2018-12-02T04:08:37.333Z,7.80
2018-12-02T04:11:06.463Z,7.80
2018-12-02T04:13:35.744Z,7.80
2018-12-02T04:16:09.778Z,7.80
2018-12-02T04:18:40.669Z,7.80
2018-12-02T04:21:12.392Z,7.90
2018-12-02T04:23:43.744Z,7.90
2018-12-02T04:26:13.254Z,7.90
2018-12-02T04:28:42.541Z,7.90
2018-12-02T04:31:11.768Z,8.00
2018-12-02T04:33:41.838Z,8.00
2018-12-02T04:36:11.118Z,8.00
2018-12-02T04:38:45.313Z,8.00
2018-12-02T04:41:15.583Z,8.00
2018-12-02T04:43:45.913Z,8.00
2018-12-02T04:46:15.724Z,8.10
2018-12-02T04:48:48.503Z,8.10
2018-12-02T04:51:19.583Z,8.10
2018-12-02T04:53:55.292Z,8.10
2018-12-02T04:56:25.181Z,8.10
2018-12-02T04:58:54.854Z,8.10
2018-12-02T05:01:25.040Z,8.10
2018-12-02T05:03:55.736Z,8.20
2018-12-02T05:06:25.615Z,8.20
2018-12-02T05:08:56.269Z,8.20
2018-12-02T05:11:26.236Z,8.20
2018-12-02T05:13:57.064Z,8.20
2018-12-02T05:16:26.585Z,8.30
2018-12-02T05:19:03.358Z,8.30
2018-12-02T05:21:35.794Z,8.30
2018-12-02T05:24:16.815Z,8.30
2018-12-02T05:26:46.249Z,8.40
2018-12-02T05:29:17.411Z,8.40
2018-12-02T05:31:47.782Z,8.40
2018-12-02T05:34:20.449Z,8.40
2018-12-02T05:36:56.362Z,8.40
2018-12-02T05:39:28.956Z,8.40
2018-12-02T05:42:03.476Z,8.40
2018-12-02T05:44:35.585Z,8.40
2018-12-02T05:47:07.142Z,8.40
2018-12-02T05:49:36.734Z,8.40
2018-12-02T05:52:14.918Z,8.40
2018-12-02T05:54:45.173Z,8.40
2018-12-02T05:57:14.852Z,8.40
2018-12-02T05:59:45.570Z,8.40
2018-12-02T06:02:14.710Z,8.40
2018-12-02T06:04:47.013Z,8.40
2018-12-02T06:07:20.511Z,8.30
2018-12-02T06:09:51.227Z,8.30
2018-12-02T06:12:20.709Z,8.30
2018-12-02T06:14:51.388Z,8.30
2018-12-02T06:17:22.594Z,8.30
2018-12-02T06:19:53.986Z,8.30
2018-12-02T06:22:30.652Z,8.30
2018-12-02T06:25:00.739Z,8.30
2018-12-02T06:27:33.780Z,8.30
2018-12-02T06:30:03.275Z,8.30
2018-12-02T06:32:32.667Z,8.30
2018-12-02T06:35:02.425Z,8.30
2018-12-02T06:37:31.752Z,8.40
2018-12-02T06:40:01.053Z,8.40
2018-12-02T06:42:35.078Z,8.40
2018-12-02T06:45:06.890Z,8.40
2018-12-02T06:47:38.615Z,8.40
2018-12-02T06:50:14.093Z,8.40
2018-12-02T06:52:55.083Z,8.40
2018-12-02T06:55:27.031Z,8.40
2018-12-02T06:58:41.603Z,8.30
2018-12-02T07:01:24.040Z,8.20
2018-12-02T07:04:18.346Z,8.20
2018-12-02T07:06:49.806Z,8.10
2018-12-02T07:09:33.827Z,8.00
2018-12-02T07:15:09.197Z,8.00
2018-12-02T07:17:38.661Z,8.00
2018-12-02T07:20:09.475Z,7.90
2018-12-02T07:22:41.790Z,7.90
2018-12-02T07:39:24.689Z,7.90
2018-12-02T07:41:58.353Z,7.80
2018-12-02T07:44:29.818Z,7.80
2018-12-02T07:47:07.605Z,7.80
2018-12-02T07:49:44.440Z,7.80
2018-12-02T07:52:23.554Z,7.80
2018-12-02T07:54:54.190Z,7.80
2018-12-02T07:57:42.408Z,7.80
2018-12-02T08:00:32.258Z,7.80
2018-12-02T08:03:03.227Z,7.80
2018-12-02T08:05:33.304Z,7.70
2018-12-02T08:08:02.646Z,7.70
2018-12-02T08:10:33.874Z,7.70
2018-12-02T08:13:05.660Z,7.70
2018-12-02T08:15:36.453Z,7.70
2018-12-02T08:18:05.901Z,7.70
2018-12-02T08:20:35.834Z,7.70
2018-12-02T08:23:27.232Z,7.70
2018-12-02T08:25:57.668Z,7.70
2018-12-02T08:28:27.178Z,7.70
2018-12-02T08:30:56.623Z,7.70
2018-12-02T08:33:29.530Z,7.70
2018-12-02T08:36:03.337Z,7.70
2018-12-02T09:03:11.066Z,7.70
2018-12-02T09:05:43.231Z,7.70
2018-12-02T09:22:09.060Z,7.70
2018-12-02T09:24:38.752Z,7.80
2018-12-02T09:27:12.620Z,7.80
2018-12-02T09:29:47.876Z,7.80
2018-12-02T09:32:17.911Z,7.80
2018-12-02T09:34:47.272Z,7.90
2018-12-02T09:37:16.712Z,7.90
2018-12-02T09:39:46.505Z,7.90
2018-12-02T09:42:15.820Z,7.90
2018-12-02T09:44:46.353Z,7.90
2018-12-02T09:47:15.547Z,7.90
2018-12-02T09:49:44.886Z,7.90
2018-12-02T09:52:14.369Z,7.90
2018-12-02T09:54:51.562Z,7.90
2018-12-02T09:57:20.931Z,8.00
2018-12-02T09:59:50.102Z,8.00
2018-12-02T10:02:19.396Z,8.00
2018-12-02T10:05:04.979Z,8.00
2018-12-02T10:07:34.648Z,8.00
2018-12-02T10:10:04.488Z,8.10
2018-12-02T10:12:33.719Z,8.10
2018-12-02T10:15:20.775Z,8.10
2018-12-02T10:17:51.246Z,8.10
2018-12-02T10:20:21.670Z,8.20
2018-12-02T10:22:54.698Z,8.20
2018-12-02T10:25:30.816Z,8.20
2018-12-02T10:28:03.696Z,8.20
2018-12-02T10:30:34.920Z,8.20
2018-12-02T10:33:04.942Z,8.20
2018-12-02T10:35:36.720Z,8.20
2018-12-02T10:38:07.599Z,8.20
2018-12-02T10:40:37.375Z,8.30
2018-12-02T10:43:07.427Z,8.30
2018-12-02T10:45:37.012Z,8.30
2018-12-02T10:48:08.830Z,8.30
2018-12-02T10:50:39.260Z,8.30
2018-12-02T10:53:13.077Z,8.30
2018-12-02T10:55:57.956Z,8.40
2018-12-02T10:58:30.406Z,8.30
2018-12-02T11:01:06.201Z,8.30
2018-12-02T11:03:35.836Z,8.40
2018-12-02T11:06:07.307Z,8.40
2018-12-02T11:08:36.976Z,8.40
2018-12-02T11:11:07.791Z,8.40
2018-12-02T11:13:38.394Z,8.30
2018-12-02T11:16:08.945Z,8.30
2018-12-02T11:21:20.465Z,8.30
2018-12-02T11:23:49.963Z,8.30
2018-12-02T11:26:19.251Z,8.30
2018-12-02T11:28:48.560Z,8.30
2018-12-02T11:31:39.715Z,8.30
2018-12-02T11:44:08.813Z,8.30
2018-12-02T11:54:52.055Z,8.40
2018-12-02T11:57:26.541Z,8.40
2018-12-02T11:59:53.394Z,8.40
2018-12-02T12:02:22.857Z,8.40
2018-12-02T12:04:52.810Z,8.40
2018-12-02T12:07:25.671Z,8.50
2018-12-02T12:09:56.091Z,8.50
2018-12-02T12:12:31.880Z,8.50
2018-12-02T12:15:01.931Z,8.50
2018-12-02T12:17:31.989Z,8.50
2018-12-02T12:20:01.278Z,8.60
2018-12-02T12:22:31.579Z,8.60
2018-12-02T12:25:01.517Z,8.60
2018-12-02T12:27:31.765Z,8.60
2018-12-02T12:30:03.827Z,8.70
2018-12-02T12:32:33.668Z,8.70
2018-12-02T12:35:05.340Z,8.70
2018-12-02T12:37:38.122Z,8.70
2018-12-02T12:40:14.930Z,8.70
2018-12-02T12:42:46.613Z,8.70
2018-12-02T12:45:15.984Z,8.70
2018-12-02T12:47:45.289Z,8.70
2018-12-02T12:50:15.343Z,8.70
2018-12-02T12:52:57.797Z,8.70
2018-12-02T12:55:29.071Z,8.70
2018-12-02T12:57:58.224Z,8.70
2018-12-02T13:00:27.765Z,8.70
2018-12-02T13:02:57.106Z,8.70
2018-12-02T13:05:38.742Z,8.70
2018-12-02T13:08:10.476Z,8.70
2018-12-02T13:10:40.225Z,8.70
2018-12-02T13:13:10.427Z,8.80
2018-12-02T13:15:39.984Z,8.80
2018-12-02T13:18:11.184Z,8.80
2018-12-02T13:20:52.228Z,8.80
2018-12-02T13:23:21.673Z,8.80
2018-12-02T13:25:52.080Z,8.80
2018-12-02T13:28:21.649Z,8.80
2018-12-02T13:30:51.338Z,8.80
2018-12-02T13:33:20.725Z,8.90
2018-12-02T13:35:49.927Z,8.90
2018-12-02T13:38:19.046Z,8.90
2018-12-02T13:40:48.167Z,8.90
2018-12-02T13:43:31.323Z,8.90
2018-12-02T13:46:00.895Z,9.00
2018-12-02T13:48:50.645Z,9.00
2018-12-02T13:51:29.680Z,9.00
2018-12-02T18:33:23.467Z,10.90
2018-12-02T18:36:06.072Z,10.90
2018-12-02T18:38:44.918Z,10.90
2018-12-02T18:41:24.249Z,10.90
2018-12-02T18:57:50.684Z,10.90
2018-12-02T19:00:33.091Z,10.90
2018-12-02T19:03:17.602Z,10.90
2018-12-02T19:05:50.469Z,10.90
2018-12-02T19:08:39.250Z,10.90
2018-12-02T19:11:17.675Z,10.90
2018-12-02T19:27:44.347Z,11.00
2018-12-02T19:30:27.083Z,11.00
2018-12-02T19:33:25.902Z,11.00
2018-12-02T19:36:07.892Z,11.00
2018-12-02T19:38:37.558Z,11.00
2018-12-02T19:41:15.161Z,11.00
2018-12-02T19:46:57.422Z,11.10
2018-12-02T19:49:37.535Z,11.10
2018-12-02T20:17:41.231Z,11.10
2018-12-02T20:20:20.336Z,11.10
2018-12-02T20:22:50.114Z,11.20
2018-12-02T20:25:20.870Z,11.20
2018-12-02T20:27:52.888Z,11.10
2018-12-02T20:30:23.234Z,11.10
2018-12-02T20:32:52.643Z,11.10
2018-12-02T20:35:21.864Z,11.10
2018-12-02T20:37:51.177Z,11.10
2018-12-02T20:40:25.097Z,11.00
2018-12-02T20:42:55.163Z,11.10
2018-12-02T20:45:24.346Z,11.00
2018-12-02T20:47:54.914Z,11.10
2018-12-02T20:50:23.194Z,11.00
2018-12-02T20:52:52.399Z,11.10
2018-12-02T20:55:23.217Z,11.10
2018-12-02T20:57:55.508Z,11.10
2018-12-02T21:00:24.735Z,11.10
2018-12-02T21:02:57.406Z,11.10
2018-12-02T21:05:36.952Z,11.10
2018-12-02T21:08:07.173Z,11.10
2018-12-02T21:10:36.355Z,11.10
2018-12-02T21:13:06.467Z,11.10
2018-12-02T21:15:35.605Z,11.10
2018-12-02T21:18:04.867Z,11.10
2018-12-02T21:20:34.241Z,11.10
2018-12-02T21:23:19.528Z,11.20
2018-12-02T21:25:49.413Z,11.10
2018-12-02T21:28:19.871Z,11.10
2018-12-02T21:30:49.860Z,11.20
2018-12-02T21:33:19.594Z,11.20
2018-12-02T21:35:49.316Z,11.20
2018-12-02T21:38:19.335Z,11.20
2018-12-02T21:40:48.708Z,11.20
2018-12-02T21:43:18.080Z,11.20
2018-12-02T21:45:48.611Z,11.20
2018-12-02T21:48:21.541Z,11.30
2018-12-02T21:50:56.372Z,11.20
2018-12-02T21:53:25.727Z,11.30
2018-12-02T21:55:54.948Z,11.30
2018-12-02T21:58:24.339Z,11.30
2018-12-02T22:00:59.148Z,11.30
2018-12-02T22:03:28.406Z,11.20
2018-12-02T22:05:57.667Z,11.30
2018-12-02T22:08:27.385Z,11.30
2018-12-02T22:10:57.276Z,11.30
2018-12-02T22:13:26.680Z,11.30
2018-12-02T22:15:55.827Z,11.30
2018-12-02T22:18:25.246Z,11.30
2018-12-02T22:20:54.742Z,11.30
2018-12-02T22:23:24.669Z,11.30
2018-12-02T22:25:53.836Z,11.30
2018-12-02T22:28:23.571Z,11.30
2018-12-02T22:30:57.113Z,11.30
2018-12-02T22:33:26.181Z,11.30
2018-12-02T22:35:55.554Z,11.40
2018-12-02T22:38:25.390Z,11.40
2018-12-02T22:40:56.683Z,11.30
2018-12-02T22:43:30.791Z,11.30
2018-12-02T22:46:00.016Z,11.30
2018-12-02T22:48:29.230Z,11.30
2018-12-02T22:50:59.103Z,11.30
2018-12-02T22:53:28.350Z,11.30
2018-12-02T22:55:57.527Z,11.30
2018-12-02T22:58:26.794Z,11.30
2018-12-02T23:01:01.296Z,11.30
2018-12-02T23:03:30.529Z,11.40
2018-12-02T23:05:59.970Z,11.30
2018-12-02T23:08:30.406Z,11.30
2018-12-02T23:10:59.542Z,11.30
2018-12-02T23:13:28.783Z,11.30
2018-12-02T23:16:00.308Z,11.20
2018-12-02T23:18:30.473Z,11.20
2018-12-02T23:20:59.745Z,11.20
2018-12-02T23:23:34.989Z,11.30
2018-12-02T23:26:04.491Z,11.30
2018-12-02T23:28:33.579Z,11.30
2018-12-02T23:31:03.138Z,11.30
2018-12-02T23:33:33.359Z,11.30
2018-12-02T23:36:02.592Z,11.30
2018-12-02T23:38:32.171Z,11.30
2018-12-02T23:41:01.568Z,11.30
2018-12-02T23:43:30.866Z,11.30
2018-12-02T23:46:00.611Z,11.30
2018-12-02T23:48:29.798Z,11.30
2018-12-02T23:51:00.230Z,11.30
2018-12-02T23:53:30.354Z,11.40
2018-12-02T23:56:01.204Z,11.40
2018-12-02T23:58:31.442Z,11.40
